createdAt,value
2023-03-11T00:02:05.891Z,7.58
2023-03-11T00:05:09.985Z,7.97
2023-03-11T00:08:16.424Z,7.80
2023-03-11T00:11:19.869Z,7.68
2023-03-11T00:14:21.961Z,7.47
2023-03-11T00:17:24.474Z,7.36
2023-03-11T00:20:34.164Z,7.46
2023-03-11T00:23:36.711Z,7.85
2023-03-11T00:26:38.795Z,8.36
2023-03-11T00:29:41.181Z,8.32
2023-03-11T00:32:43.203Z,8.56
2023-03-11T00:35:45.552Z,8.99
2023-03-11T00:38:47.919Z,9.26
2023-03-11T00:41:51.829Z,9.59
2023-03-11T00:44:53.910Z,9.77
2023-03-11T00:47:56.749Z,10.17
2023-03-11T00:50:59.014Z,10.22
2023-03-11T00:54:01.496Z,10.24
2023-03-11T00:57:05.498Z,10.33
2023-03-11T01:00:11.815Z,10.84
2023-03-11T01:03:13.925Z,12.60
2023-03-11T01:06:16.303Z,12.64
2023-03-11T01:09:18.481Z,10.77
2023-03-11T01:12:20.954Z,10.30
2023-03-11T01:15:35.265Z,12.17
2023-03-11T01:18:37.922Z,13.05
2023-03-11T01:21:40.552Z,13.52
2023-03-11T01:24:43.018Z,12.47
2023-03-11T01:27:45.076Z,10.47
2023-03-11T01:30:47.521Z,9.83
2023-03-11T01:33:49.844Z,10.13
2023-03-11T01:36:52.129Z,11.61
2023-03-11T01:39:55.076Z,13.01
2023-03-11T01:42:59.472Z,13.76
2023-03-11T01:46:02.499Z,13.90
2023-03-11T01:49:11.765Z,14.13
2023-03-11T01:52:14.388Z,14.32
2023-03-11T01:55:23.553Z,14.35
2023-03-11T01:58:31.092Z,14.17
2023-03-11T02:01:38.053Z,14.08
2023-03-11T02:04:41.889Z,13.57
2023-03-11T02:07:44.950Z,13.15
2023-03-11T02:10:52.473Z,12.06
2023-03-11T02:14:00.332Z,12.68
2023-03-11T02:17:02.391Z,13.67
2023-03-11T08:12:15.506Z,16.21
2023-03-11T08:15:17.664Z,16.28
2023-03-11T08:18:20.437Z,16.30
2023-03-11T08:21:26.046Z,16.29
2023-03-11T08:24:29.560Z,16.24
2023-03-11T08:27:31.648Z,16.19
2023-03-11T08:30:35.797Z,16.19
2023-03-11T08:33:38.120Z,16.19
2023-03-11T08:36:40.917Z,16.19
2023-03-11T08:39:42.921Z,16.18
2023-03-11T08:42:45.602Z,16.14
2023-03-11T08:45:47.781Z,16.14
2023-03-11T08:48:50.676Z,16.15
2023-03-11T08:51:52.662Z,16.17
2023-03-11T08:54:55.118Z,16.17
2023-03-11T08:57:57.185Z,16.18
2023-03-11T09:00:59.614Z,16.24
2023-03-11T09:04:01.671Z,16.28
2023-03-11T09:07:03.962Z,16.25
2023-03-11T09:10:06.693Z,16.32
2023-03-11T09:13:09.090Z,16.35
2023-03-11T09:16:16.670Z,16.39
2023-03-11T09:19:19.158Z,16.47
2023-03-11T09:22:21.125Z,16.52
2023-03-11T09:25:23.552Z,16.55
2023-03-11T09:28:27.936Z,16.63
2023-03-11T09:31:33.630Z,16.66
2023-03-11T09:34:35.754Z,16.75
2023-03-11T09:37:38.039Z,16.77
2023-03-11T09:40:53.576Z,16.75
2023-03-11T09:44:12.904Z,16.79
2023-03-11T09:47:27.064Z,16.82
2023-03-11T09:51:01.216Z,16.87
2023-03-11T09:54:09.689Z,16.87
2023-03-11T09:57:35.624Z,16.92
2023-03-11T10:00:38.320Z,16.93
2023-03-11T10:03:40.984Z,16.97
2023-03-11T10:06:51.845Z,17.04
2023-03-11T10:10:03.466Z,17.16
2023-03-11T10:13:26.368Z,17.26
2023-03-11T10:16:54.784Z,17.41
2023-03-11T10:20:05.922Z,17.43
2023-03-11T10:23:09.313Z,17.43
2023-03-11T10:27:20.252Z,17.50
2023-03-11T10:30:59.913Z,17.55
2023-03-11T10:34:42.120Z,17.57
2023-03-11T10:37:51.780Z,17.60
2023-03-11T10:40:59.949Z,17.61
2023-03-11T10:44:14.395Z,17.68
2023-03-11T10:47:23.090Z,17.64
2023-03-11T10:50:25.610Z,17.71
2023-03-11T10:53:27.810Z,17.73
2023-03-11T10:56:33.086Z,17.65
2023-03-11T10:59:47.746Z,17.61
2023-03-11T11:02:58.391Z,17.63
2023-03-11T11:06:07.070Z,17.60
2023-03-11T11:09:17.418Z,17.58
2023-03-11T11:12:21.337Z,17.60
2023-03-11T11:15:27.138Z,17.58
2023-03-11T11:18:33.602Z,17.63
2023-03-11T11:21:47.360Z,17.58
2023-03-11T11:24:54.230Z,17.55
2023-03-11T11:28:02.603Z,17.57
2023-03-11T11:31:19.018Z,17.54
2023-03-11T11:34:31.705Z,17.54
2023-03-11T11:37:40.001Z,17.51
2023-03-11T11:40:42.523Z,17.53
2023-03-11T11:43:47.255Z,17.51
2023-03-11T11:46:56.811Z,17.51
2023-03-11T11:50:02.613Z,17.35
2023-03-11T11:53:09.705Z,17.04
2023-03-11T11:56:11.671Z,16.48
2023-03-11T11:59:18.230Z,16.63
2023-03-11T12:02:38.832Z,16.38
2023-03-11T12:05:58.523Z,16.19
2023-03-11T12:09:37.999Z,16.66
2023-03-11T12:12:57.881Z,16.93
2023-03-11T12:16:22.860Z,16.83
2023-03-11T12:19:37.278Z,15.71
2023-03-11T12:23:03.639Z,14.99
2023-03-11T12:26:20.396Z,13.77
2023-03-11T12:29:30.188Z,13.73
2023-03-11T12:32:40.100Z,14.62
2023-03-11T12:35:54.412Z,15.64
2023-03-11T12:38:57.368Z,15.12
2023-03-11T12:42:11.409Z,14.58
2023-03-11T12:45:47.704Z,13.71
2023-03-11T12:49:09.436Z,12.60
2023-03-11T12:52:11.791Z,14.81
2023-03-11T12:55:16.767Z,15.57
2023-03-11T12:58:47.798Z,16.15
2023-03-11T13:01:49.999Z,15.84
2023-03-11T13:05:00.001Z,16.08
2023-03-11T13:08:14.655Z,16.55
2023-03-11T13:11:29.035Z,16.77
2023-03-11T13:14:34.721Z,16.94
2023-03-11T13:17:37.864Z,17.07
2023-03-11T13:20:42.844Z,16.92
2023-03-11T13:23:45.428Z,15.93
2023-03-11T13:27:00.025Z,16.75
2023-03-11T13:30:05.819Z,16.58
2023-03-11T13:33:32.188Z,14.54
2023-03-11T13:36:51.549Z,13.33
2023-03-11T13:40:14.198Z,14.55
2023-03-11T13:43:22.416Z,15.00
2023-03-11T13:46:40.587Z,15.40
2023-03-11T13:49:58.049Z,16.35
2023-03-11T13:53:04.842Z,15.97
2023-03-11T13:56:25.842Z,15.83
2023-03-11T13:59:33.013Z,15.00
2023-03-11T14:02:36.046Z,14.99
2023-03-11T14:05:42.991Z,15.51
2023-03-11T14:08:54.509Z,16.26
2023-03-11T14:12:05.260Z,16.21
2023-03-11T14:15:12.645Z,16.83
2023-03-11T14:18:42.285Z,17.21
2023-03-11T14:21:50.663Z,17.14
2023-03-11T14:24:53.334Z,16.93
2023-03-11T14:28:01.998Z,16.94
2023-03-11T14:31:05.378Z,17.11
2023-03-11T14:34:10.976Z,16.58
2023-03-11T14:37:33.661Z,16.11
2023-03-11T14:40:42.216Z,15.97
2023-03-11T14:43:48.330Z,16.33
2023-03-11T14:46:52.510Z,15.88
2023-03-11T14:49:55.213Z,16.33
2023-03-11T14:53:14.327Z,16.48
2023-03-11T14:56:19.186Z,17.00
2023-03-11T14:59:29.390Z,16.90
2023-03-11T15:02:37.325Z,17.02
2023-03-11T15:05:48.845Z,17.11
2023-03-11T15:08:59.456Z,17.33
2023-03-11T15:12:04.517Z,17.35
2023-03-11T15:15:29.613Z,17.41
2023-03-11T15:18:37.408Z,17.41
2023-03-11T15:21:46.297Z,17.33
2023-03-11T15:24:54.391Z,17.40
2023-03-11T15:27:56.925Z,17.14
2023-03-11T15:31:31.372Z,16.99
2023-03-11T15:34:35.559Z,16.80
2023-03-11T15:37:40.382Z,17.16
2023-03-11T15:41:00.733Z,17.33
2023-03-11T15:44:07.551Z,17.44
2023-03-11T15:47:18.285Z,17.51
2023-03-11T15:50:27.315Z,17.57
2023-03-11T15:53:32.529Z,17.55
2023-03-11T15:56:35.365Z,17.14
2023-03-11T15:59:42.589Z,17.16
2023-03-11T16:02:46.342Z,16.65
2023-03-11T16:05:58.930Z,16.52
2023-03-11T16:09:01.710Z,16.69
2023-03-11T16:12:20.248Z,17.14
2023-03-11T16:15:28.919Z,17.33
2023-03-11T16:18:32.456Z,17.53
2023-03-11T16:21:42.547Z,17.43
2023-03-11T16:24:46.478Z,17.47
2023-03-11T16:27:53.076Z,17.37
2023-03-11T16:30:55.400Z,16.00
2023-03-11T16:33:57.912Z,15.14
2023-03-11T16:37:00.143Z,15.75
2023-03-11T16:40:02.541Z,16.69
2023-03-11T16:43:07.492Z,16.82
2023-03-11T16:46:09.939Z,16.84
2023-03-11T16:49:11.999Z,16.41
2023-03-11T16:52:14.239Z,16.60
2023-03-11T16:55:16.416Z,15.93
2023-03-11T16:58:19.618Z,13.32
2023-03-11T17:01:22.341Z,12.69
2023-03-11T17:04:24.835Z,12.34
2023-03-11T17:07:27.380Z,12.23
2023-03-11T17:10:30.970Z,12.57
2023-03-11T17:13:32.927Z,13.08
2023-03-11T17:16:35.707Z,12.29
2023-03-11T17:19:38.046Z,12.27
2023-03-11T17:22:40.405Z,12.58
2023-03-11T17:25:42.530Z,13.50
2023-03-11T17:28:45.129Z,14.76
2023-03-11T17:31:47.255Z,15.80
2023-03-11T17:34:49.548Z,16.30
2023-03-11T17:37:51.830Z,16.55
2023-03-11T17:40:54.333Z,16.69
2023-03-11T17:43:56.518Z,16.82
2023-03-11T17:46:58.987Z,16.90
2023-03-11T17:50:01.035Z,16.84
2023-03-11T17:53:03.966Z,16.77
2023-03-11T17:56:06.791Z,16.79
2023-03-11T17:59:09.183Z,16.72
2023-03-11T18:02:14.430Z,16.79
2023-03-11T18:05:18.807Z,16.80
2023-03-11T18:08:20.891Z,16.83
2023-03-11T18:11:26.655Z,16.82
2023-03-11T18:14:28.743Z,16.77
2023-03-11T18:17:31.177Z,16.70
2023-03-11T18:20:33.334Z,16.63
2023-03-11T18:23:36.004Z,16.65
2023-03-11T18:26:38.127Z,16.65
2023-03-11T18:29:40.679Z,16.68
2023-03-11T18:32:42.792Z,16.68
2023-03-11T18:35:45.187Z,16.72
2023-03-11T18:38:47.715Z,16.70
2023-03-11T18:41:50.170Z,16.72
2023-03-11T18:44:52.238Z,16.73
2023-03-11T18:47:54.610Z,16.72
2023-03-11T18:50:56.708Z,16.73
2023-03-11T18:54:00.494Z,16.75
2023-03-11T18:57:02.499Z,16.77
2023-03-11T19:00:05.316Z,16.80
2023-03-11T19:03:12.797Z,16.80
2023-03-11T19:06:16.676Z,16.79
2023-03-11T19:09:19.006Z,16.77
2023-03-11T19:12:21.383Z,16.82
2023-03-11T19:15:23.428Z,16.82
2023-03-11T19:18:26.229Z,16.80
2023-03-11T19:21:28.724Z,16.84
2023-03-11T19:24:31.126Z,16.89
2023-03-11T19:27:33.171Z,16.84
2023-03-11T19:30:35.480Z,16.87
2023-03-11T19:33:37.648Z,16.92
2023-03-11T19:36:49.892Z,16.90
2023-03-11T19:39:51.999Z,16.90
2023-03-11T19:42:54.452Z,16.90
2023-03-11T19:45:57.124Z,16.94
2023-03-11T19:48:59.739Z,16.86
2023-03-11T19:52:01.876Z,16.86
2023-03-11T19:55:04.803Z,16.89
2023-03-11T19:58:06.822Z,16.86
2023-03-11T20:01:19.131Z,16.99
2023-03-11T20:04:21.439Z,17.02
2023-03-11T20:07:24.110Z,17.03
2023-03-11T20:10:26.474Z,17.02
2023-03-11T20:13:29.066Z,17.04
2023-03-11T20:16:31.185Z,17.04
2023-03-11T20:19:34.654Z,17.10
2023-03-11T20:22:37.015Z,17.14
2023-03-11T20:25:41.196Z,17.17
2023-03-11T20:28:43.887Z,17.23
2023-03-11T20:31:46.435Z,17.24
2023-03-11T20:34:48.648Z,17.26
2023-03-11T20:37:51.160Z,17.31
2023-03-11T20:40:57.036Z,17.37
2023-03-11T20:44:00.062Z,17.41
2023-03-11T20:47:02.811Z,17.41
2023-03-11T20:50:05.927Z,17.37
2023-03-11T20:53:08.085Z,17.35
2023-03-11T20:56:15.775Z,17.37
2023-03-11T20:59:17.815Z,17.34
2023-03-11T21:02:21.525Z,17.28
2023-03-11T21:05:23.750Z,17.27
2023-03-11T21:08:26.206Z,17.23
2023-03-11T21:11:29.008Z,17.21
2023-03-11T21:14:31.398Z,17.20
2023-03-11T21:17:33.874Z,17.21
2023-03-11T21:20:36.806Z,17.17
2023-03-11T21:23:40.047Z,17.16
2023-03-11T21:26:42.457Z,17.13
2023-03-11T21:29:44.482Z,17.10
2023-03-11T21:32:46.991Z,17.09
2023-03-11T21:36:00.319Z,17.04
2023-03-11T21:39:03.838Z,17.03
2023-03-11T21:42:06.163Z,16.97
2023-03-11T21:45:09.255Z,16.99
2023-03-11T21:48:13.600Z,16.92
2023-03-11T21:51:18.207Z,16.99
2023-03-11T21:54:20.226Z,17.03
2023-03-11T21:57:23.354Z,17.09
2023-03-11T22:00:25.512Z,17.13
2023-03-11T22:03:28.440Z,17.16
2023-03-11T22:06:33.600Z,17.13
2023-03-11T22:09:36.445Z,17.20
2023-03-11T22:12:38.503Z,17.26
2023-03-11T22:15:41.103Z,17.28
2023-03-11T22:18:43.850Z,17.34
2023-03-11T22:21:46.304Z,17.37
2023-03-11T22:24:48.311Z,17.40
2023-03-11T22:27:50.864Z,17.34
2023-03-11T22:30:52.906Z,17.33
2023-03-11T22:33:55.306Z,17.27
2023-03-11T22:36:57.489Z,17.35
2023-03-11T22:40:00.079Z,17.37
2023-03-11T22:43:02.103Z,17.43
2023-03-11T22:46:05.810Z,17.41
2023-03-11T22:49:07.890Z,17.47
2023-03-11T22:52:10.310Z,17.45
2023-03-11T22:55:12.325Z,17.48
2023-03-11T22:58:14.724Z,17.48
2023-03-11T23:01:16.995Z,17.53
2023-03-11T23:04:19.291Z,17.57
2023-03-11T23:07:21.416Z,17.60
2023-03-11T23:10:23.931Z,17.58
2023-03-11T23:13:26.880Z,17.57
2023-03-11T23:16:29.974Z,17.51
2023-03-11T23:19:31.994Z,17.53
2023-03-11T23:22:39.485Z,17.54
2023-03-11T23:25:41.789Z,17.55
2023-03-11T23:28:45.263Z,17.57
2023-03-11T23:31:47.276Z,17.60
2023-03-11T23:34:49.729Z,17.63
2023-03-11T23:37:52.344Z,17.61
2023-03-11T23:40:54.766Z,17.63
2023-03-11T23:43:56.811Z,17.60
2023-03-11T23:46:59.072Z,17.63
2023-03-11T23:50:01.102Z,17.64
2023-03-11T23:53:03.464Z,17.63
2023-03-11T23:56:14.315Z,17.67
2023-03-11T23:59:16.744Z,17.65
